Time;durP1;ratioP1;P1;durP2;ratioP2;P2;SDS_P1;SDS_P2;PMS_P1;PMS_P2;Temp;Humidity;BMP_temperature;BMP_pressure;BME280_temperature;BME280_humidity;BME280_pressure;Samples;Min_cycle;Max_cycle;Signal;HPM_P1;HPM_P2
2023/03/17 00:01:15;;;;;;;2.47;2.28;;;;;;;8.21;83.51;100730.91;5034214;28;20228;-70
2023/03/17 00:03:43;;;;;;;2.65;2.45;;;;;;;8.19;83.10;100717.06;5031927;28;20038;-70
2023/03/17 00:06:26;;;;;;;2.72;2.13;;;;;;;8.17;83.13;100713.66;5021969;28;20041;-70
2023/03/17 00:08:52;;;;;;;2.05;1.95;;;;;;;8.18;83.19;100704.91;5026541;28;20088;-70
2023/03/17 00:11:17;;;;;;;2.30;2.20;;;;;;;8.17;83.61;100713.66;5056172;28;20056;-70
2023/03/17 00:13:44;;;;;;;2.20;2.00;;;;;;;8.20;83.81;100707.47;5036834;28;20246;-70
2023/03/17 00:16:19;;;;;;;2.22;1.98;;;;;;;8.17;84.00;100705.81;5055674;28;20049;-70
2023/03/17 00:18:46;;;;;;;2.00;1.90;;;;;;;8.18;83.96;100704.91;5055424;28;20230;-70
2023/03/17 00:21:21;;;;;;;2.50;2.30;;;;;;;8.17;83.95;100698.00;5055697;28;20041;-70
2023/03/17 00:23:50;;;;;;;1.98;1.88;;;;;;;8.17;84.39;100692.78;5057530;28;20028;-70
2023/03/17 00:26:16;;;;;;;3.00;2.22;;;;;;;8.17;84.29;100694.53;5056362;28;20064;-70
2023/03/17 00:28:41;;;;;;;2.28;1.95;;;;;;;8.17;84.51;100698.00;5056759;28;20036;-70
2023/03/17 00:31:16;;;;;;;2.00;1.90;;;;;;;8.17;84.56;100702.38;5057526;28;20055;-70
2023/03/17 00:33:44;;;;;;;2.40;2.20;;;;;;;8.16;85.11;100711.06;5057270;28;20025;-70
2023/03/17 00:36:15;;;;;;;2.30;2.10;;;;;;;8.15;85.11;100707.63;5057574;28;20051;-70
2023/03/17 00:38:40;;;;;;;2.40;2.20;;;;;;;8.14;85.21;100712.88;5057020;28;20307;-70
2023/03/17 00:41:08;;;;;;;2.60;2.03;;;;;;;8.15;85.32;100709.34;5057751;28;20086;-70
2023/03/17 00:43:34;;;;;;;2.85;2.15;;;;;;;8.13;84.96;100685.97;5056744;28;20041;-70
2023/03/17 00:46:00;;;;;;;3.60;2.60;;;;;;;8.12;85.03;100672.97;5039661;28;20236;-70
2023/03/17 00:48:28;;;;;;;2.97;2.38;;;;;;;8.11;85.00;100682.53;5039611;28;20037;-70
2023/03/17 00:50:54;;;;;;;3.58;2.70;;;;;;;8.11;85.27;100698.16;5056884;28;20037;-70
2023/03/17 00:53:20;;;;;;;2.60;2.30;;;;;;;8.09;85.21;100694.75;5057700;28;20363;-70
2023/03/17 00:55:46;;;;;;;2.63;2.40;;;;;;;8.08;84.73;100698.28;5056725;28;20032;-70
2023/03/17 00:58:28;;;;;;;2.53;2.33;;;;;;;8.08;85.21;100698.28;5057385;28;20219;-70
2023/03/17 01:00:55;;;;;;;2.55;2.35;;;;;;;8.07;85.08;100707.00;5056755;28;20320;-70
2023/03/17 01:03:21;;;;;;;2.05;1.90;;;;;;;8.07;85.19;100705.25;5057442;28;20311;-70
2023/03/17 01:05:47;;;;;;;2.40;2.20;;;;;;;8.07;85.19;100699.19;5056483;28;20075;-70
2023/03/17 01:08:13;;;;;;;3.08;2.78;;;;;;;8.05;85.31;100696.63;5057432;28;20338;-70
2023/03/17 01:10:38;;;;;;;2.35;2.15;;;;;;;8.06;85.08;100703.56;5056665;28;20052;-70
2023/03/17 01:13:05;;;;;;;2.30;2.10;;;;;;;8.05;85.27;100704.44;5060242;28;20281;-70
2023/03/17 01:15:32;;;;;;;3.05;2.15;;;;;;;8.05;85.35;100695.78;5061465;28;20052;-70
2023/03/17 01:17:59;;;;;;;3.33;2.22;;;;;;;8.05;85.47;100699.22;5061675;28;20053;-70
2023/03/17 01:20:31;;;;;;;1.90;1.80;;;;;;;8.05;85.29;100687.94;5062137;28;20086;-70
2023/03/17 01:22:57;;;;;;;2.08;1.98;;;;;;;8.03;85.23;100685.38;5061006;28;20060;-70
2023/03/17 01:25:23;;;;;;;2.45;2.25;;;;;;;8.03;85.38;100687.16;5061741;28;20027;-70
2023/03/17 01:27:49;;;;;;;2.42;2.20;;;;;;;8.02;85.29;100669.78;5060817;28;20108;-70
2023/03/17 01:30:23;;;;;;;2.10;2.00;;;;;;;8.01;85.30;100678.53;5043190;28;20044;-70
2023/03/17 01:32:49;;;;;;;2.40;2.20;;;;;;;8.02;85.56;100669.78;5060490;28;20036;-70
2023/03/17 01:35:15;;;;;;;1.98;1.88;;;;;;;8.01;85.32;100670.72;5061094;28;20045;-70
2023/03/17 01:37:41;;;;;;;2.20;2.00;;;;;;;8.01;85.72;100671.56;5060575;28;20064;-70
2023/03/17 01:40:11;;;;;;;2.67;2.20;;;;;;;8.01;86.01;100653.28;5060853;28;20236;-70
2023/03/17 01:42:38;;;;;;;1.90;1.80;;;;;;;8.02;85.74;100651.53;5060438;28;20040;-70
2023/03/17 01:45:45;;;;;;;2.40;2.20;;;;;;;8.00;85.63;100655.94;5060200;28;20397;-70
2023/03/17 01:48:12;;;;;;;1.90;1.80;;;;;;;8.00;85.58;100648.13;5059898;28;20025;-70
2023/03/17 01:50:37;;;;;;;2.17;2.00;;;;;;;8.00;85.84;100653.34;5058553;28;20083;-70
2023/03/17 01:53:03;;;;;;;2.30;2.10;;;;;;;7.99;86.05;100649.03;5041742;28;20037;-70
2023/03/17 01:55:29;;;;;;;2.55;2.03;;;;;;;8.01;85.92;100660.28;5059316;28;20350;-70
2023/03/17 01:57:55;;;;;;;2.45;1.73;;;;;;;8.00;85.83;100648.97;5059644;28;20079;-70
2023/03/17 02:00:23;;;;;;;2.05;1.95;;;;;;;8.00;86.00;100648.13;5060082;28;20037;-70
2023/03/17 02:02:55;;;;;;;2.22;1.90;;;;;;;8.00;85.96;100650.72;5060137;28;20032;-70
2023/03/17 02:05:25;;;;;;;1.92;1.70;;;;;;;8.00;86.10;100641.16;5060631;28;20048;-70
2023/03/17 02:07:52;;;;;;;1.95;1.75;;;;;;;8.01;86.39;100645.47;5059928;28;20029;-70
2023/03/17 02:10:19;;;;;;;2.00;1.88;;;;;;;8.00;86.50;100637.69;5060076;28;20044;-70
2023/03/17 02:12:49;;;;;;;1.98;1.88;;;;;;;8.00;86.27;100629.88;5059704;28;20348;-70
2023/03/17 02:15:16;;;;;;;1.75;1.65;;;;;;;8.00;86.55;100635.94;5059654;28;20100;-70
2023/03/17 02:17:41;;;;;;;2.00;1.90;;;;;;;8.00;86.49;100635.09;5041931;28;20048;-70
2023/03/17 02:20:16;;;;;;;2.83;1.67;;;;;;;7.99;86.58;100634.25;5060774;28;20028;-71
2023/03/17 02:22:48;;;;;;;2.28;2.08;;;;;;;8.00;86.58;100630.72;5059590;28;20033;-70
2023/03/17 02:25:14;;;;;;;2.55;2.13;;;;;;;8.00;86.72;100635.09;5041470;28;20037;-70
2023/03/17 02:27:46;;;;;;;1.75;1.65;;;;;;;7.99;86.48;100634.25;5060084;28;20040;-70
2023/03/17 02:30:18;;;;;;;2.10;1.90;;;;;;;8.00;86.57;100632.47;5059953;28;20339;-70
2023/03/17 02:32:43;;;;;;;1.80;1.70;;;;;;;7.99;86.42;100641.22;5059607;28;20064;-70
2023/03/17 02:35:10;;;;;;;1.92;1.73;;;;;;;7.98;85.99;100637.75;5059766;28;20059;-70
2023/03/17 02:37:35;;;;;;;2.00;1.85;;;;;;;7.98;86.22;100636.91;5058984;28;20111;-70
2023/03/17 02:40:01;;;;;;;2.75;2.28;;;;;;;7.98;86.32;100631.69;5059884;28;20044;-70
2023/03/17 02:42:31;;;;;;;2.95;2.15;;;;;;;7.97;86.11;100633.44;5059825;28;20028;-70
2023/03/17 02:44:56;;;;;;;3.00;1.98;;;;;;;7.98;86.34;100639.50;5058797;28;20036;-70
2023/03/17 02:47:22;;;;;;;2.00;1.80;;;;;;;7.97;86.19;100632.59;5059707;28;20052;-70
2023/03/17 02:49:48;;;;;;;2.10;1.75;;;;;;;7.96;85.85;100631.72;5059313;28;20124;-70
2023/03/17 02:52:13;;;;;;;2.38;2.00;;;;;;;7.97;86.17;100637.81;5059127;28;20057;-70
2023/03/17 02:54:39;;;;;;;2.45;2.20;;;;;;;7.97;86.04;100632.59;5058842;28;20222;-70
2023/03/17 02:57:06;;;;;;;2.17;2.03;;;;;;;7.97;86.36;100632.59;5059283;28;20060;-70
2023/03/17 02:59:31;;;;;;;2.45;2.20;;;;;;;7.96;85.66;100636.94;5059116;28;20043;-70
2023/03/17 03:01:57;;;;;;;2.10;1.90;;;;;;;7.95;85.17;100617.00;5058973;28;20288;-70
2023/03/17 03:04:23;;;;;;;2.05;1.85;;;;;;;7.95;84.32;100619.59;5059421;28;20106;-70
2023/03/17 03:06:49;;;;;;;2.30;1.80;;;;;;;7.96;84.65;100625.66;5057507;28;20056;-70
2023/03/17 03:09:16;;;;;;;5.28;2.42;;;;;;;7.97;85.15;100632.59;5059047;28;20060;-70
2023/03/17 03:11:42;;;;;;;1.88;1.77;;;;;;;7.98;85.61;100637.75;5058255;28;20032;-70
2023/03/17 03:14:08;;;;;;;1.85;1.75;;;;;;;7.98;85.76;100642.09;5058910;28;20095;-70
2023/03/17 03:16:34;;;;;;;1.90;1.80;;;;;;;7.98;86.07;100647.31;5058372;28;20324;-70
2023/03/17 03:18:59;;;;;;;2.30;2.10;;;;;;;7.99;85.51;100651.66;5059273;28;20051;-70
2023/03/17 03:21:25;;;;;;;1.80;1.70;;;;;;;7.97;85.48;100640.41;5059068;28;20337;-70
2023/03/17 03:23:50;;;;;;;2.03;1.85;;;;;;;7.98;85.64;100631.69;5058176;28;20083;-70
2023/03/17 03:26:16;;;;;;;1.73;1.63;;;;;;;7.97;85.67;100638.66;5058900;28;20332;-70
2023/03/17 03:28:42;;;;;;;1.85;1.73;;;;;;;7.98;86.21;100658.59;5058179;28;20041;-70
2023/03/17 03:31:07;;;;;;;1.80;1.70;;;;;;;7.99;86.47;100651.66;5058541;28;20068;-70
2023/03/17 03:33:33;;;;;;;2.20;2.00;;;;;;;7.98;86.39;100650.78;5058245;28;20037;-70
2023/03/17 03:35:59;;;;;;;2.40;2.20;;;;;;;7.98;85.87;100645.56;5058109;28;20044;-70
2023/03/17 03:38:26;;;;;;;2.10;1.90;;;;;;;7.97;85.89;100649.09;5058196;28;20347;-70
2023/03/17 03:40:52;;;;;;;2.33;1.92;;;;;;;7.98;85.94;100655.16;5058146;28;20264;-70
2023/03/17 03:43:18;;;;;;;1.60;1.50;;;;;;;7.99;86.44;100667.31;5058596;28;20044;-69
2023/03/17 03:45:44;;;;;;;1.98;1.88;;;;;;;7.99;86.37;100659.47;5057890;28;20244;-69
2023/03/17 03:48:10;;;;;;;2.10;1.90;;;;;;;7.98;86.51;100669.03;5058409;28;20082;-69
2023/03/17 03:50:35;;;;;;;3.00;1.65;;;;;;;7.99;86.69;100664.69;5057997;28;20050;-69
2023/03/17 03:53:00;;;;;;;2.10;1.90;;;;;;;7.99;86.66;100680.34;5058278;28;20049;-69
2023/03/17 03:55:26;;;;;;;1.80;1.70;;;;;;;7.99;87.13;100686.41;5058002;28;20052;-69
2023/03/17 03:57:51;;;;;;;3.30;1.90;;;;;;;7.99;87.25;100682.94;5057970;28;20712;-72
2023/03/17 04:00:18;;;;;;;1.80;1.70;;;;;;;7.99;87.44;100672.50;5058681;28;20037;-70
2023/03/17 04:02:45;;;;;;;2.17;1.98;;;;;;;7.98;87.00;100670.78;5057542;28;20073;-70
2023/03/17 04:05:12;;;;;;;1.90;1.73;;;;;;;7.98;87.18;100669.03;5057913;28;20051;-70
2023/03/17 04:07:38;;;;;;;1.98;1.88;;;;;;;7.98;87.42;100661.22;5057568;28;20033;-70
2023/03/17 04:10:04;;;;;;;1.80;1.70;;;;;;;7.97;87.19;100656.06;5057603;28;20102;-70
2023/03/17 04:12:30;;;;;;;1.67;1.58;;;;;;;7.98;87.52;100668.19;5058229;28;20131;-70
2023/03/17 04:14:55;;;;;;;2.25;1.52;;;;;;;7.97;87.65;100666.50;5057495;28;20029;-70
2023/03/17 04:17:21;;;;;;;1.70;1.52;;;;;;;7.98;87.59;100665.56;5058241;28;20021;-70
2023/03/17 04:19:46;;;;;;;1.85;1.75;;;;;;;7.97;87.65;100661.28;5057651;28;20048;-70
2023/03/17 04:22:12;;;;;;;2.60;2.08;;;;;;;7.97;87.72;100675.16;5057436;28;20051;-70
2023/03/17 04:24:38;;;;;;;1.70;1.60;;;;;;;7.96;87.27;100673.44;5057504;28;20040;-70
2023/03/17 04:27:03;;;;;;;2.90;1.98;;;;;;;7.96;86.93;100659.56;5057938;28;20037;-70
2023/03/17 04:29:30;;;;;;;2.55;1.90;;;;;;;7.94;85.11;100654.41;5057840;28;20104;-70
2023/03/17 04:31:55;;;;;;;2.20;1.90;;;;;;;7.94;85.42;100669.19;5057411;28;20336;-72
2023/03/17 04:34:21;;;;;;;1.95;1.85;;;;;;;7.95;85.36;100656.13;5057678;28;20040;-70
2023/03/17 04:36:48;;;;;;;1.70;1.60;;;;;;;7.96;85.63;100654.34;5057725;28;20044;-70
2023/03/17 04:39:14;;;;;;;1.80;1.70;;;;;;;7.96;86.13;100660.41;5057365;28;20051;-70
2023/03/17 04:41:40;;;;;;;1.73;1.63;;;;;;;7.97;85.84;100676.94;5057296;28;20036;-70
2023/03/17 04:44:06;;;;;;;2.17;1.83;;;;;;;7.97;86.35;100669.94;5057047;28;20359;-70
2023/03/17 04:46:31;;;;;;;2.03;1.65;;;;;;;7.96;86.39;100663.00;5057199;28;20072;-70
2023/03/17 04:48:57;;;;;;;1.90;1.80;;;;;;;7.97;86.59;100661.28;5056813;28;20025;-70
2023/03/17 04:51:22;;;;;;;1.85;1.75;;;;;;;7.95;84.78;100655.25;5057525;28;20049;-70
2023/03/17 04:53:48;;;;;;;2.13;1.92;;;;;;;7.95;84.38;100671.75;5056895;28;20104;-70
2023/03/17 04:56:14;;;;;;;3.65;2.60;;;;;;;7.94;82.78;100659.63;5057574;28;20060;-70
2023/03/17 04:58:39;;;;;;;2.10;1.90;;;;;;;7.94;82.70;100641.34;5056612;28;20263;-70
2023/03/17 05:01:06;;;;;;;2.50;1.83;;;;;;;7.96;82.26;100633.50;5057445;28;20213;-70
2023/03/17 05:03:32;;;;;;;2.17;1.98;;;;;;;7.96;81.70;100644.75;5057305;28;20303;-70
2023/03/17 05:05:58;;;;;;;1.83;1.73;;;;;;;7.98;82.35;100644.72;5057132;28;20037;-70
2023/03/17 05:08:25;;;;;;;2.58;1.92;;;;;;;7.98;82.87;100622.09;5057444;28;20036;-70
2023/03/17 05:10:51;;;;;;;2.45;2.00;;;;;;;7.98;82.75;100611.66;5056627;28;20049;-70
2023/03/17 05:13:17;;;;;;;2.90;2.33;;;;;;;7.99;83.09;100607.31;5057586;28;20078;-70
2023/03/17 05:15:47;;;;;;;1.80;1.70;;;;;;;7.97;81.34;100586.50;5056889;28;20368;-70
2023/03/17 05:18:13;;;;;;;2.10;1.90;;;;;;;7.99;82.19;100604.72;5057302;28;20032;-70
2023/03/17 05:20:38;;;;;;;2.15;1.95;;;;;;;7.99;83.02;100625.56;5057080;28;20347;-70
2023/03/17 05:23:04;;;;;;;1.75;1.50;;;;;;;8.00;83.40;100624.66;5057461;28;20082;-70
2023/03/17 05:25:29;;;;;;;2.17;1.98;;;;;;;8.00;83.74;100622.03;5057676;28;20071;-70
2023/03/17 05:27:55;;;;;;;2.65;1.90;;;;;;;7.99;84.15;100631.63;5057016;28;20041;-70
2023/03/17 05:30:20;;;;;;;3.70;2.03;;;;;;;7.99;84.35;100643.81;5057313;28;20104;-70
2023/03/17 05:32:45;;;;;;;1.90;1.80;;;;;;;7.98;84.77;100653.38;5056781;28;20036;-70
2023/03/17 05:35:11;;;;;;;2.35;2.15;;;;;;;7.99;85.15;100641.22;5056076;28;20143;-70
2023/03/17 05:37:37;;;;;;;2.42;2.22;;;;;;;7.97;85.14;100637.81;5056641;28;20037;-70
2023/03/17 05:40:03;;;;;;;1.77;1.67;;;;;;;7.98;85.31;100650.78;5039037;28;20248;-70
2023/03/17 05:42:28;;;;;;;3.08;1.90;;;;;;;7.96;84.66;100642.16;5056952;28;20037;-70
2023/03/17 05:44:54;;;;;;;2.35;1.83;;;;;;;7.96;84.89;100626.50;5056314;28;20051;-70
2023/03/17 05:47:19;;;;;;;2.40;1.70;;;;;;;7.96;85.47;100638.69;5038943;28;20052;-70
2023/03/17 05:49:45;;;;;;;2.17;1.98;;;;;;;7.96;85.78;100631.72;5056777;28;20532;-70
2023/03/17 05:52:10;;;;;;;3.30;1.80;;;;;;;7.97;86.06;100619.56;5057121;28;20347;-70
2023/03/17 05:54:36;;;;;;;1.90;1.80;;;;;;;7.97;86.41;100643.88;5056158;28;20049;-70
2023/03/17 05:57:02;;;;;;;2.33;1.80;;;;;;;7.98;86.42;100639.50;5056865;28;20036;-70
2023/03/17 05:59:28;;;;;;;3.03;2.20;;;;;;;7.98;86.75;100623.84;5058335;28;20136;-70
2023/03/17 06:01:54;;;;;;;2.83;1.95;;;;;;;7.96;86.99;100618.69;5060179;28;20340;-70
2023/03/17 06:04:19;;;;;;;3.40;1.90;;;;;;;7.97;87.17;100611.75;5060384;28;20112;-70
2023/03/17 06:06:45;;;;;;;1.70;1.60;;;;;;;7.97;87.00;100616.94;5059682;28;20041;-70
2023/03/17 06:09:10;;;;;;;1.90;1.80;;;;;;;7.95;87.16;100630.03;5060214;28;20383;-70
2023/03/17 06:11:36;;;;;;;2.47;1.92;;;;;;;7.95;87.27;100619.59;5060089;28;20037;-70
2023/03/17 06:14:02;;;;;;;1.73;1.63;;;;;;;7.96;87.55;100625.66;5059958;28;20229;-70
2023/03/17 06:16:29;;;;;;;1.67;1.58;;;;;;;7.95;87.53;100623.94;5060156;28;20037;-70
2023/03/17 06:18:55;;;;;;;2.20;2.05;;;;;;;7.94;87.43;100635.28;5059404;28;20236;-70
2023/03/17 06:21:21;;;;;;;3.25;1.83;;;;;;;7.94;87.90;100651.78;5060116;28;20045;-70
2023/03/17 06:23:46;;;;;;;3.03;2.08;;;;;;;7.94;88.45;100650.94;5058771;28;20348;-70
2023/03/17 06:26:11;;;;;;;1.90;1.80;;;;;;;7.93;87.97;100642.28;5059588;28;20332;-70
2023/03/17 06:28:37;;;;;;;2.38;1.95;;;;;;;7.93;87.78;100641.41;5058774;28;20306;-70
2023/03/17 06:31:02;;;;;;;2.50;1.88;;;;;;;7.93;87.90;100644.88;5058896;28;20051;-70
2023/03/17 06:33:28;;;;;;;5.43;2.08;;;;;;;7.93;88.11;100642.28;5059527;28;20029;-70
2023/03/17 06:35:53;;;;;;;2.92;2.03;;;;;;;7.93;88.14;100641.41;5059133;28;20421;-70
2023/03/17 06:38:19;;;;;;;2.38;2.17;;;;;;;7.92;88.29;100635.34;5059393;28;20044;-70
2023/03/17 06:40:45;;;;;;;2.17;1.98;;;;;;;7.94;88.14;100637.91;5058778;28;20222;-70
2023/03/17 06:43:11;;;;;;;2.53;2.33;;;;;;;7.93;88.26;100644.88;5059337;28;20112;-70
2023/03/17 06:45:36;;;;;;;2.38;2.17;;;;;;;7.93;88.65;100654.44;5058236;28;20044;-70
2023/03/17 06:48:01;;;;;;;2.40;2.20;;;;;;;7.93;88.57;100636.19;5058908;28;20051;-70
2023/03/17 06:50:27;;;;;;;3.55;2.10;;;;;;;7.93;88.69;100629.25;5056611;28;20055;-70
2023/03/17 06:52:52;;;;;;;2.10;2.00;;;;;;;7.94;88.89;100645.72;5058354;28;20038;-70
2023/03/17 06:55:18;;;;;;;2.63;1.98;;;;;;;7.93;88.86;100647.50;5058826;28;20036;-70
2023/03/17 06:57:43;;;;;;;6.95;2.03;;;;;;;7.95;88.96;100650.03;5059184;28;20107;-70
2023/03/17 07:00:11;;;;;;;2.30;2.10;;;;;;;7.93;89.02;100657.91;5058437;28;20060;-70
2023/03/17 07:02:36;;;;;;;2.40;2.17;;;;;;;7.93;88.67;100665.75;5058823;28;20079;-70
2023/03/17 07:05:03;;;;;;;3.15;2.20;;;;;;;7.93;88.69;100662.25;5041132;28;20040;-70
2023/03/17 07:07:28;;;;;;;3.28;2.38;;;;;;;7.92;88.58;100651.00;5056041;28;20064;-70
2023/03/17 07:09:54;;;;;;;2.92;2.38;;;;;;;7.93;88.76;100657.03;5048468;28;20065;-70
2023/03/17 07:12:20;;;;;;;2.58;2.35;;;;;;;7.92;89.00;100645.78;5038021;28;20033;-70
2023/03/17 07:14:46;;;;;;;5.15;2.35;;;;;;;7.93;88.70;100657.91;5036671;28;20061;-70
2023/03/17 07:17:13;;;;;;;2.35;2.15;;;;;;;7.93;88.86;100662.25;5038176;28;20183;-70
2023/03/17 07:19:39;;;;;;;3.08;2.25;;;;;;;7.93;88.96;100654.44;5020311;28;20045;-70
2023/03/17 07:22:05;;;;;;;2.45;2.13;;;;;;;7.92;88.81;100640.56;5038440;28;20104;-70
2023/03/17 07:24:31;;;;;;;3.65;2.45;;;;;;;7.93;88.92;100642.28;5038475;28;20107;-70
2023/03/17 07:26:56;;;;;;;2.72;2.30;;;;;;;7.93;89.09;100652.72;5037816;28;20379;-70
2023/03/17 07:29:22;;;;;;;3.28;2.50;;;;;;;7.95;89.36;100652.63;5037416;28;20037;-70
2023/03/17 07:31:48;;;;;;;2.75;2.50;;;;;;;7.95;89.15;100657.84;5037230;28;20045;-70
2023/03/17 07:34:14;;;;;;;2.33;2.13;;;;;;;7.96;89.16;100664.78;5036671;28;20394;-70
2023/03/17 07:36:40;;;;;;;3.17;2.40;;;;;;;7.96;89.41;100667.38;5037064;28;20084;-70
2023/03/17 07:39:06;;;;;;;3.22;2.70;;;;;;;7.96;89.27;100670.84;5037127;28;20210;-70
2023/03/17 07:41:32;;;;;;;8.35;2.70;;;;;;;7.96;87.84;100688.25;5036598;28;20096;-70
2023/03/17 07:43:57;;;;;;;3.03;2.78;;;;;;;7.96;87.12;100680.44;5038993;28;20386;-70
2023/03/17 07:46:23;;;;;;;4.93;2.80;;;;;;;7.97;87.00;100676.94;5036169;28;20049;-70
2023/03/17 07:48:48;;;;;;;2.63;2.42;;;;;;;7.97;86.91;100663.91;5035783;28;20091;-70
2023/03/17 07:51:17;;;;;;;3.60;2.58;;;;;;;7.98;87.12;100657.75;5040597;28;20574;-70
2023/03/17 07:53:45;;;;;;;2.75;2.40;;;;;;;7.97;87.33;100663.91;5040113;28;20029;-70
2023/03/17 07:56:11;;;;;;;2.50;2.13;;;;;;;7.98;87.42;100666.41;5037667;28;20445;-70
2023/03/17 07:58:36;;;;;;;4.28;2.80;;;;;;;7.98;87.42;100671.63;5036912;28;20060;-70
2023/03/17 08:01:02;;;;;;;2.80;2.60;;;;;;;7.99;87.51;100667.31;5036008;28;20041;-70
2023/03/17 08:03:29;;;;;;;9.00;3.22;;;;;;;7.99;87.83;100662.94;5037273;28;20033;-70
2023/03/17 08:05:56;;;;;;;4.35;3.25;;;;;;;7.97;86.38;100661.28;5034446;28;20394;-70
2023/03/17 08:08:24;;;;;;;3.15;2.85;;;;;;;7.97;86.36;100669.94;5035240;28;20037;-70
2023/03/17 08:10:50;;;;;;;2.80;2.60;;;;;;;7.99;86.17;100660.31;5051991;28;20057;-70
2023/03/17 08:13:16;;;;;;;6.78;3.78;;;;;;;8.00;85.54;100669.81;5057269;28;20037;-70
2023/03/17 08:15:42;;;;;;;5.60;3.20;;;;;;;8.01;85.33;100674.16;5055863;28;20383;-70
2023/03/17 08:18:07;;;;;;;3.50;3.20;;;;;;;8.04;84.95;100665.38;5056992;28;20036;-70
2023/03/17 08:20:33;;;;;;;3.25;2.95;;;;;;;8.07;84.73;100662.66;5056279;28;20055;-70
2023/03/17 08:22:59;;;;;;;4.32;3.28;;;;;;;8.10;84.32;100661.72;5056597;28;20048;-70
2023/03/17 08:25:25;;;;;;;4.55;2.92;;;;;;;8.13;82.97;100659.88;5056806;28;20088;-70
2023/03/17 08:27:50;;;;;;;4.82;3.58;;;;;;;8.20;83.39;100663.09;5056722;28;20096;-70
2023/03/17 08:30:16;;;;;;;3.75;2.92;;;;;;;8.25;83.64;100669.03;5056749;28;20045;-70
2023/03/17 08:32:43;;;;;;;4.97;3.70;;;;;;;8.27;83.54;100665.44;5056640;28;20283;-70
2023/03/17 08:35:14;;;;;;;3.20;2.95;;;;;;;8.30;83.43;100656.69;5056674;28;20044;-70
2023/03/17 08:37:41;;;;;;;6.30;3.38;;;;;;;8.33;83.27;100647.88;5055396;28;20048;-70
2023/03/17 08:40:08;;;;;;;3.72;3.42;;;;;;;8.35;83.44;100656.50;5056570;28;20071;-70
2023/03/17 08:42:36;;;;;;;5.80;3.70;;;;;;;8.38;83.46;100665.09;5048904;28;20265;-70
2023/03/17 08:45:03;;;;;;;6.22;3.42;;;;;;;8.40;83.49;100672.88;5047249;28;20387;-70
2023/03/17 08:47:28;;;;;;;4.93;3.30;;;;;;;8.43;82.83;100671.03;5054460;28;20364;-70
2023/03/17 08:49:55;;;;;;;4.88;3.42;;;;;;;8.47;82.64;100677.00;5055890;28;20036;-70
2023/03/17 08:52:21;;;;;;;4.28;3.40;;;;;;;8.50;82.67;100674.31;5053326;28;20131;-70
2023/03/17 08:54:47;;;;;;;6.25;3.80;;;;;;;8.53;83.03;100673.34;5054650;28;20103;-70
2023/03/17 08:57:13;;;;;;;5.57;3.75;;;;;;;8.55;83.04;100682.81;5053978;28;20036;-70
2023/03/17 08:59:38;;;;;;;3.90;3.20;;;;;;;8.58;82.93;100671.41;5054144;28;20041;-70
2023/03/17 09:02:04;;;;;;;6.38;4.13;;;;;;;8.59;82.87;100679.19;5048666;28;20033;-70
2023/03/17 09:04:29;;;;;;;6.40;3.67;;;;;;;8.62;82.93;100692.16;5054379;28;20068;-70
2023/03/17 09:06:56;;;;;;;4.20;3.80;;;;;;;8.66;82.80;100700.72;5055239;28;20063;-71
2023/03/17 09:09:22;;;;;;;3.90;3.50;;;;;;;8.68;82.76;100693.69;5053466;28;20064;-71
2023/03/17 09:11:48;;;;;;;5.88;3.92;;;;;;;8.71;82.45;100692.72;5051434;28;20060;-71
2023/03/17 09:14:14;;;;;;;6.28;3.90;;;;;;;8.75;82.52;100689.97;5057486;28;20041;-71
2023/03/17 09:16:39;;;;;;;6.93;3.85;;;;;;;8.78;81.92;100700.28;5053328;28;20036;-71
2023/03/17 09:19:04;;;;;;;8.68;3.60;;;;;;;8.82;82.69;100709.72;5055306;28;20139;-71
2023/03/17 09:21:30;;;;;;;5.43;4.00;;;;;;;8.86;83.04;100713.09;5053607;28;20237;-71
2023/03/17 09:23:56;;;;;;;4.18;3.78;;;;;;;8.92;82.55;100718.06;5053974;28;20060;-71
2023/03/17 09:26:23;;;;;;;7.25;4.90;;;;;;;8.95;82.88;100720.59;5054502;28;20041;-71
2023/03/17 09:28:49;;;;;;;10.95;4.50;;;;;;;8.98;82.75;100715.22;5052662;28;20241;-71
2023/03/17 09:31:14;;;;;;;7.32;4.43;;;;;;;9.00;82.84;100720.41;5052495;28;20036;-71
2023/03/17 09:33:40;;;;;;;4.85;4.07;;;;;;;9.01;82.84;100722.13;5055502;28;20288;-71
2023/03/17 09:36:07;;;;;;;7.35;4.47;;;;;;;9.03;82.25;100722.91;5056597;28;20405;-71
2023/03/17 09:38:32;;;;;;;5.78;4.30;;;;;;;9.06;82.06;100730.66;5061534;28;20253;-71
2023/03/17 09:41:07;;;;;;;7.35;4.28;;;;;;;9.09;82.28;100730.53;5059501;28;20125;-71
2023/03/17 09:43:38;;;;;;;19.00;4.47;;;;;;;9.14;82.66;100738.22;5060641;28;20044;-71
2023/03/17 09:46:30;;;;;;;8.43;4.72;;;;;;;9.18;82.02;100732.81;5057490;28;20214;-71
2023/03/17 09:49:03;;;;;;;8.90;4.95;;;;;;;9.22;82.18;100729.19;5054391;28;20266;-71
2023/03/17 09:51:31;;;;;;;13.18;4.05;;;;;;;9.25;82.10;100736.06;5059871;28;20025;-71
2023/03/17 09:54:01;;;;;;;9.55;4.25;;;;;;;9.27;81.29;100743.84;5057561;28;20103;-71
2023/03/17 09:56:28;;;;;;;8.52;4.63;;;;;;;9.30;81.91;100757.66;5059463;28;20029;-71
2023/03/17 09:58:58;;;;;;;7.38;4.32;;;;;;;9.36;82.52;100757.41;5058783;28;20037;-71
2023/03/17 10:01:24;;;;;;;6.35;3.97;;;;;;;9.44;82.61;100771.97;5058954;28;20056;-71
2023/03/17 10:03:50;;;;;;;5.13;4.43;;;;;;;9.52;81.96;100781.22;5058100;28;20202;-71
2023/03/17 10:06:23;;;;;;;10.68;4.95;;;;;;;9.61;82.15;100764.34;5058346;28;20177;-71
2023/03/17 10:08:57;;;;;;;6.10;4.38;;;;;;;9.70;81.93;100769.22;5057799;28;20044;-71
2023/03/17 10:11:30;;;;;;;7.55;4.40;;;;;;;9.75;80.68;100755.97;5057911;28;20342;-71
2023/03/17 10:14:02;;;;;;;6.57;4.38;;;;;;;9.78;80.64;100753.22;5058865;28;20119;-71
2023/03/17 10:16:36;;;;;;;6.65;4.18;;;;;;;9.81;81.28;100755.75;5057466;28;20082;-71
2023/03/17 10:19:23;;;;;;;7.10;4.35;;;;;;;9.83;81.71;100751.28;5058445;28;20075;-71
2023/03/17 10:21:54;;;;;;;6.85;4.50;;;;;;;9.87;82.27;100757.25;5057935;28;20098;-71
2023/03/17 10:24:22;;;;;;;6.80;4.28;;;;;;;9.93;82.12;100759.63;5058997;28;20252;-71
2023/03/17 10:26:54;;;;;;;8.60;4.28;;;;;;;10.01;83.66;100756.72;5057310;28;20045;-71
2023/03/17 10:29:22;;;;;;;5.95;4.05;;;;;;;10.08;83.24;100745.97;5059241;28;20201;-71
2023/03/17 10:31:49;;;;;;;5.67;4.33;;;;;;;10.14;81.07;100750.09;5058342;28;20039;-71
2023/03/17 10:34:24;;;;;;;6.38;4.15;;;;;;;10.22;80.46;100750.63;5057933;28;20041;-71
2023/03/17 10:36:58;;;;;;;5.90;4.40;;;;;;;10.27;80.28;100746.03;5056982;28;20075;-71
2023/03/17 10:39:24;;;;;;;11.40;4.68;;;;;;;10.29;80.91;100744.22;5057974;28;20142;-71
2023/03/17 10:42:07;;;;;;;5.88;4.40;;;;;;;10.32;80.55;100738.06;5057239;28;20060;-71
2023/03/17 10:44:56;;;;;;;7.05;4.53;;;;;;;10.37;81.27;100742.19;5056056;28;20111;-71
2023/03/17 10:47:39;;;;;;;5.93;4.97;;;;;;;10.41;81.12;100737.66;5053807;28;20040;-71
2023/03/17 10:50:14;;;;;;;8.73;4.28;;;;;;;10.46;81.42;100747.94;5056440;28;20052;-71
2023/03/17 10:52:40;;;;;;;7.82;4.15;;;;;;;10.47;80.96;100742.63;5045577;28;20037;-71
2023/03/17 10:55:09;;;;;;;8.13;4.40;;;;;;;10.48;81.70;100733.03;5045154;28;20037;-71
2023/03/17 10:57:37;;;;;;;5.88;4.20;;;;;;;10.54;82.44;100735.38;5056446;28;20319;-71
2023/03/17 11:00:15;;;;;;;10.52;4.65;;;;;;;10.60;82.12;100729.88;5056537;28;20020;-71
2023/03/17 11:02:49;;;;;;;10.82;5.35;;;;;;;10.64;82.10;100722.75;5053911;28;20636;-71
2023/03/17 11:05:25;;;;;;;8.02;4.65;;;;;;;10.68;81.68;100719.09;5049013;28;20039;-71
2023/03/17 11:07:56;;;;;;;6.07;4.70;;;;;;;10.71;81.04;100719.81;5056494;28;20036;-71
2023/03/17 11:10:25;;;;;;;5.75;4.22;;;;;;;10.73;80.04;100712.75;5057041;28;20057;-71
2023/03/17 11:13:09;;;;;;;13.73;5.30;;;;;;;10.77;80.26;100713.47;5056712;28;20037;-71
2023/03/17 11:15:40;;;;;;;8.30;4.50;;;;;;;10.78;80.86;100699.44;5055613;28;20032;-71
2023/03/17 11:18:25;;;;;;;9.60;4.97;;;;;;;10.78;80.40;100695.97;5057634;28;20143;-71
2023/03/17 11:20:58;;;;;;;9.68;4.43;;;;;;;10.76;80.13;100693.41;5045653;28;20243;-71
2023/03/17 11:23:43;;;;;;;5.18;4.15;;;;;;;10.76;80.68;100691.63;5050631;28;20091;-71
2023/03/17 11:26:37;;;;;;;5.50;4.47;;;;;;;10.75;81.24;100682.09;5056648;28;20033;-71
2023/03/17 11:29:20;;;;;;;7.78;4.88;;;;;;;10.76;80.71;100677.69;5057640;28;20209;-71
2023/03/17 11:31:59;;;;;;;4.95;4.47;;;;;;;10.77;80.96;100682.03;5055794;28;20040;-71
2023/03/17 11:34:34;;;;;;;5.70;4.75;;;;;;;10.76;80.52;100685.56;5056679;28;20025;-71